createdAt,value
2017-12-03T00:00:49.415Z,0.00
2017-12-03T00:03:17.459Z,-0.10
2017-12-03T00:05:45.643Z,-0.20
2017-12-03T00:08:13.714Z,-0.20
2017-12-03T00:10:41.743Z,-0.10
2017-12-03T00:13:09.791Z,-0.20
2017-12-03T00:15:37.831Z,-0.10
2017-12-03T00:18:05.913Z,-0.10
2017-12-03T00:20:33.944Z,-0.10
2017-12-03T00:23:01.970Z,-0.10
2017-12-03T00:25:30.018Z,0.00
2017-12-03T00:27:58.035Z,0.00
2017-12-03T00:30:26.119Z,-0.10
2017-12-03T00:32:54.155Z,-0.20
2017-12-03T00:35:22.214Z,-0.20
2017-12-03T00:37:51.010Z,0.00
2017-12-03T00:40:19.790Z,0.00
2017-12-03T00:42:47.833Z,0.00
2017-12-03T00:45:15.863Z,0.00
2017-12-03T00:47:44.666Z,0.00
2017-12-03T00:50:12.699Z,0.00
2017-12-03T00:52:40.775Z,-0.10
2017-12-03T00:55:08.800Z,-0.20
2017-12-03T00:57:36.842Z,-0.20
2017-12-03T01:00:04.898Z,-0.20
2017-12-03T01:02:32.923Z,-0.30
2017-12-03T01:05:00.992Z,-0.30
2017-12-03T01:07:29.038Z,-0.30
2017-12-03T01:09:57.079Z,-0.20
2017-12-03T01:12:25.162Z,-0.30
2017-12-03T01:14:53.249Z,-0.30
2017-12-03T01:17:22.011Z,-0.30
2017-12-03T01:19:50.806Z,-0.20
2017-12-03T01:22:19.588Z,-0.10
2017-12-03T01:24:48.372Z,-0.10
2017-12-03T01:27:16.368Z,-0.20
2017-12-03T01:29:44.385Z,0.00
2017-12-03T01:32:12.488Z,0.00
2017-12-03T01:34:40.490Z,-0.10
2017-12-03T01:37:08.513Z,-0.10
2017-12-03T01:39:37.276Z,-0.20
2017-12-03T01:42:05.272Z,-0.30
2017-12-03T01:44:33.317Z,-0.20
2017-12-03T01:47:01.315Z,-0.20
2017-12-03T01:49:29.324Z,-0.20
2017-12-03T01:51:57.387Z,-0.10
2017-12-03T01:54:25.384Z,-0.10
2017-12-03T01:56:53.376Z,-0.10
2017-12-03T01:59:21.491Z,-0.30
2017-12-03T02:01:50.254Z,-0.10
2017-12-03T02:04:18.249Z,-0.20
2017-12-03T02:06:46.332Z,-0.10
2017-12-03T02:09:14.325Z,0.00
2017-12-03T02:11:43.086Z,0.00
2017-12-03T02:14:11.121Z,-0.10
2017-12-03T02:16:39.876Z,-0.10
2017-12-03T02:19:07.863Z,-0.10
2017-12-03T02:21:35.910Z,-0.10
2017-12-03T02:24:03.907Z,-0.10
2017-12-03T02:26:31.896Z,-0.10
2017-12-03T02:28:59.916Z,-0.10
2017-12-03T02:31:27.917Z,-0.10
2017-12-03T02:33:55.935Z,-0.30
2017-12-03T02:36:23.948Z,-0.40
2017-12-03T02:38:51.943Z,-0.40
2017-12-03T02:41:21.445Z,-0.40
2017-12-03T02:43:49.477Z,-0.40
2017-12-03T02:46:17.472Z,-0.40
2017-12-03T02:48:46.365Z,-0.40
2017-12-03T02:51:14.396Z,-0.40
2017-12-03T02:53:42.389Z,-0.40
2017-12-03T02:56:10.389Z,-0.40
2017-12-03T02:58:38.435Z,-0.30
2017-12-03T03:01:06.439Z,-0.20
2017-12-03T03:03:34.436Z,-0.20
2017-12-03T03:06:02.453Z,-0.20
2017-12-03T03:08:30.453Z,-0.30
2017-12-03T03:10:58.447Z,-0.20
2017-12-03T03:13:26.492Z,-0.30
2017-12-03T03:15:54.494Z,-0.40
2017-12-03T03:18:22.488Z,-0.20
2017-12-03T03:20:50.611Z,-0.20
2017-12-03T03:23:18.616Z,-0.30
2017-12-03T03:25:46.648Z,-0.30
2017-12-03T03:28:14.657Z,-0.20
2017-12-03T03:30:42.649Z,-0.20
2017-12-03T03:33:11.412Z,-0.20
2017-12-03T03:35:39.447Z,-0.20
2017-12-03T03:38:08.208Z,-0.20
2017-12-03T03:40:36.220Z,-0.30
2017-12-03T03:43:05.009Z,-0.30
2017-12-03T03:45:32.999Z,-0.40
2017-12-03T03:48:01.761Z,-0.40
2017-12-03T03:50:29.987Z,-0.40
2017-12-03T03:52:58.748Z,-0.40
2017-12-03T03:55:26.749Z,-0.50
2017-12-03T03:57:54.952Z,-0.40
2017-12-03T04:00:22.948Z,-0.40
2017-12-03T04:02:51.700Z,-0.40
2017-12-03T04:05:19.716Z,-0.40
2017-12-03T04:07:47.708Z,-0.30
2017-12-03T04:10:16.476Z,-0.40
2017-12-03T04:12:44.512Z,-0.40
2017-12-03T04:15:12.512Z,-0.30
2017-12-03T04:17:40.500Z,-0.20
2017-12-03T04:20:08.533Z,-0.20
2017-12-03T04:22:36.555Z,-0.20
2017-12-03T04:25:04.543Z,-0.20
2017-12-03T04:27:32.584Z,-0.20
2017-12-03T04:30:00.588Z,-0.20
2017-12-03T04:32:29.347Z,-0.20
2017-12-03T04:34:57.406Z,-0.20
2017-12-03T04:37:25.392Z,-0.20
2017-12-03T04:39:53.428Z,-0.20
2017-12-03T04:42:22.200Z,-0.20
2017-12-03T04:44:50.193Z,-0.20
2017-12-03T04:47:18.181Z,-0.20
2017-12-03T04:49:47.015Z,-0.30
2017-12-03T04:52:14.994Z,-0.30
2017-12-03T04:54:42.984Z,-0.20
2017-12-03T04:57:11.009Z,-0.20
2017-12-03T04:59:39.004Z,-0.20
2017-12-03T05:02:06.992Z,-0.30
2017-12-03T05:04:35.017Z,-0.30
2017-12-03T05:07:03.015Z,-0.20
2017-12-03T05:09:30.999Z,-0.20
2017-12-03T05:11:59.016Z,-0.20
2017-12-03T05:14:27.472Z,-0.20
2017-12-03T05:16:55.440Z,-0.20
2017-12-03T05:19:23.492Z,-0.10
2017-12-03T05:21:52.248Z,0.00
2017-12-03T05:24:20.228Z,-0.10
2017-12-03T05:26:48.284Z,-0.10
2017-12-03T05:29:16.277Z,-0.10
2017-12-03T05:31:44.268Z,-0.20
2017-12-03T05:34:12.298Z,-0.20
2017-12-03T05:36:40.288Z,-0.10
2017-12-03T05:39:09.036Z,-0.20
2017-12-03T05:41:37.074Z,-0.20
2017-12-03T05:44:05.824Z,0.00
2017-12-03T05:46:33.803Z,0.00
2017-12-03T05:49:01.824Z,0.00
2017-12-03T05:51:29.824Z,0.00
2017-12-03T05:53:58.584Z,-0.10
2017-12-03T05:56:26.892Z,-0.10
2017-12-03T05:58:54.880Z,-0.10
2017-12-03T06:01:22.870Z,-0.10
2017-12-03T06:03:50.905Z,-0.10
2017-12-03T06:06:18.888Z,-0.20
2017-12-03T06:08:46.877Z,-0.20
2017-12-03T06:11:14.901Z,-0.20
2017-12-03T06:13:43.659Z,-0.10
2017-12-03T06:16:11.644Z,-0.20
2017-12-03T06:18:39.677Z,-0.10
2017-12-03T06:21:08.444Z,-0.20
2017-12-03T06:23:36.424Z,-0.20
2017-12-03T06:26:04.630Z,-0.20
2017-12-03T06:28:32.628Z,-0.20
2017-12-03T06:31:01.391Z,-0.30
2017-12-03T06:33:29.428Z,-0.30
2017-12-03T06:35:57.420Z,-0.30
2017-12-03T06:38:25.418Z,-0.40
2017-12-03T06:40:53.444Z,-0.40
2017-12-03T06:43:21.452Z,-0.40
2017-12-03T06:45:50.680Z,-0.30
2017-12-03T06:48:18.732Z,-0.30
2017-12-03T06:50:47.489Z,-0.40
2017-12-03T06:53:15.490Z,-0.40
2017-12-03T06:55:43.491Z,-0.40
2017-12-03T06:58:12.267Z,-0.30
2017-12-03T07:00:40.260Z,-0.30
2017-12-03T07:03:08.311Z,-0.30
2017-12-03T07:05:36.296Z,-0.20
2017-12-03T07:08:04.288Z,-0.20
2017-12-03T07:10:32.336Z,-0.30
2017-12-03T07:13:00.332Z,-0.40
2017-12-03T07:15:28.327Z,-0.40
2017-12-03T07:17:56.373Z,-0.40
2017-12-03T07:20:25.153Z,-0.40
2017-12-03T07:22:53.140Z,-0.40
2017-12-03T07:25:21.189Z,-0.40
2017-12-03T07:27:49.196Z,-0.30
2017-12-03T07:30:17.239Z,-0.20
2017-12-03T07:32:45.252Z,-0.20
2017-12-03T07:35:13.249Z,-0.30
2017-12-03T07:37:41.251Z,-0.30
2017-12-03T07:40:10.076Z,-0.20
2017-12-03T07:42:38.056Z,-0.30
2017-12-03T07:45:06.052Z,-0.20
2017-12-03T07:47:34.126Z,-0.20
2017-12-03T07:50:02.072Z,-0.20
2017-12-03T07:52:30.844Z,-0.20
2017-12-03T07:54:58.875Z,-0.30
2017-12-03T07:57:26.886Z,-0.20
2017-12-03T07:59:54.872Z,-0.20
2017-12-03T08:02:22.907Z,-0.20
2017-12-03T08:04:51.664Z,-0.20
2017-12-03T08:07:19.669Z,-0.20
2017-12-03T08:09:47.700Z,-0.20
2017-12-03T08:12:15.692Z,-0.30
2017-12-03T08:14:43.680Z,-0.30
2017-12-03T08:17:11.724Z,-0.30
2017-12-03T08:19:40.484Z,-0.40
2017-12-03T08:22:08.483Z,-0.40
2017-12-03T08:24:36.504Z,-0.30
2017-12-03T08:27:04.505Z,-0.30
2017-12-03T08:29:32.500Z,-0.30
2017-12-03T08:32:00.525Z,-0.30
2017-12-03T08:34:28.524Z,-0.30
2017-12-03T08:36:56.531Z,-0.30
2017-12-03T08:39:24.579Z,-0.30
2017-12-03T08:41:52.559Z,-0.30
2017-12-03T08:44:21.316Z,-0.30
2017-12-03T08:46:49.352Z,-0.30
2017-12-03T08:49:18.123Z,-0.20
2017-12-03T08:51:46.149Z,-0.30
2017-12-03T08:54:14.188Z,-0.30
2017-12-03T08:56:42.187Z,-0.20
2017-12-03T08:59:10.181Z,-0.10
2017-12-03T09:01:38.984Z,-0.10
2017-12-03T09:04:07.741Z,0.00
2017-12-03T09:06:35.752Z,-0.10
2017-12-03T09:09:03.793Z,-0.10
2017-12-03T09:11:31.771Z,0.00
2017-12-03T09:13:59.772Z,0.10
2017-12-03T09:16:27.800Z,0.10
2017-12-03T09:18:56.584Z,0.30
2017-12-03T09:21:25.348Z,0.40
2017-12-03T09:23:53.387Z,0.40
2017-12-03T09:26:21.364Z,0.50
2017-12-03T09:28:49.373Z,0.50
2017-12-03T09:31:17.387Z,0.60
2017-12-03T09:33:45.381Z,0.50
2017-12-03T09:36:13.368Z,0.70
2017-12-03T09:38:41.392Z,0.70
2017-12-03T09:41:09.387Z,0.80
2017-12-03T09:43:37.390Z,0.70
2017-12-03T09:46:05.407Z,0.70
2017-12-03T09:48:33.405Z,0.70
2017-12-03T09:51:02.170Z,0.60
2017-12-03T09:53:30.224Z,0.60
2017-12-03T09:55:58.227Z,0.50
2017-12-03T09:58:26.234Z,0.40
2017-12-03T10:00:54.432Z,0.60
2017-12-03T10:03:23.208Z,0.60
2017-12-03T10:05:51.201Z,0.50
2017-12-03T10:08:19.226Z,0.60
2017-12-03T10:10:47.220Z,0.40
2017-12-03T10:13:15.209Z,0.40
2017-12-03T10:15:43.256Z,0.40
2017-12-03T10:18:12.025Z,0.50
2017-12-03T10:20:40.032Z,0.50
2017-12-03T10:23:08.833Z,0.60
2017-12-03T10:25:36.824Z,0.50
2017-12-03T10:28:05.576Z,0.60
2017-12-03T10:30:33.628Z,0.50
2017-12-03T10:33:01.636Z,0.50
2017-12-03T10:35:29.628Z,0.50
2017-12-03T10:38:06.660Z,0.50
2017-12-03T10:40:34.675Z,0.50
2017-12-03T10:43:02.665Z,0.60
2017-12-03T10:45:30.708Z,0.80
2017-12-03T10:47:58.704Z,0.90
2017-12-03T10:50:27.474Z,0.90
2017-12-03T10:52:55.500Z,0.80
2017-12-03T10:55:23.488Z,0.90
2017-12-03T10:57:51.486Z,0.70
2017-12-03T11:00:19.496Z,0.80
2017-12-03T11:02:47.480Z,0.80
2017-12-03T11:05:15.476Z,0.80
2017-12-03T11:07:43.508Z,0.80
2017-12-03T11:10:11.516Z,0.80
2017-12-03T11:12:39.512Z,0.70
2017-12-03T11:15:07.545Z,0.80
2017-12-03T11:17:35.532Z,0.80
2017-12-03T11:20:03.529Z,0.80
2017-12-03T11:22:31.559Z,0.70
2017-12-03T11:24:59.556Z,0.70
2017-12-03T11:27:28.320Z,0.70
2017-12-03T11:29:56.572Z,0.60
2017-12-03T11:32:24.565Z,0.70
2017-12-03T11:34:52.556Z,0.70
2017-12-03T11:37:20.604Z,0.70
2017-12-03T11:39:49.365Z,0.60
2017-12-03T11:42:17.360Z,0.50
2017-12-03T11:44:45.397Z,0.50
2017-12-03T11:47:13.387Z,0.50
2017-12-03T11:49:41.392Z,0.50
2017-12-03T11:52:09.415Z,0.40
2017-12-03T11:54:38.168Z,0.50
2017-12-03T11:57:06.193Z,0.40
2017-12-03T11:59:34.985Z,0.40
2017-12-03T12:02:02.972Z,0.30
2017-12-03T12:04:31.732Z,0.20
2017-12-03T12:06:59.767Z,0.20
2017-12-03T12:09:28.532Z,0.00
2017-12-03T12:11:56.528Z,0.00
2017-12-03T12:14:24.565Z,-0.10
2017-12-03T12:16:52.556Z,-0.10
2017-12-03T12:19:20.560Z,-0.10
2017-12-03T12:21:48.622Z,-0.10
2017-12-03T12:24:16.622Z,-0.20
2017-12-03T12:26:44.643Z,-0.20
2017-12-03T12:29:13.436Z,-0.20
2017-12-03T12:31:42.208Z,-0.30
2017-12-03T12:34:10.204Z,-0.30
2017-12-03T12:36:38.253Z,-0.30
2017-12-03T12:39:06.276Z,-0.30
2017-12-03T12:41:34.286Z,-0.40
2017-12-03T12:44:03.089Z,-0.30
2017-12-03T12:46:31.093Z,-0.40
2017-12-03T12:48:59.091Z,-0.20
2017-12-03T12:51:27.145Z,-0.20
2017-12-03T12:53:55.140Z,-0.20
2017-12-03T12:56:23.143Z,-0.20
2017-12-03T12:58:51.225Z,-0.20
2017-12-03T13:01:19.941Z,-0.20
2017-12-03T13:03:47.944Z,-0.20
2017-12-03T13:06:16.744Z,-0.30
2017-12-03T13:08:44.748Z,-0.30
2017-12-03T13:11:12.747Z,-0.30
2017-12-03T13:13:40.804Z,-0.30
2017-12-03T13:16:09.569Z,-0.30
2017-12-03T13:18:37.577Z,-0.30
2017-12-03T13:21:05.625Z,-0.30
2017-12-03T13:23:33.632Z,-0.30
2017-12-03T13:26:01.680Z,-0.30
2017-12-03T13:28:30.456Z,-0.20
2017-12-03T13:30:58.490Z,-0.30
2017-12-03T13:33:26.508Z,-0.20
2017-12-03T13:35:55.386Z,-0.20
2017-12-03T13:38:23.389Z,-0.30
2017-12-03T13:40:52.156Z,-0.20
2017-12-03T13:43:20.204Z,-0.30
2017-12-03T13:45:48.205Z,-0.20
2017-12-03T13:48:16.241Z,-0.10
2017-12-03T13:50:45.052Z,-0.20
2017-12-03T13:53:13.799Z,-0.10
2017-12-03T13:55:41.798Z,-0.20
2017-12-03T13:58:09.823Z,-0.20
2017-12-03T14:00:37.811Z,-0.10
2017-12-03T14:03:05.816Z,-0.30
2017-12-03T14:05:33.869Z,-0.30
2017-12-03T14:08:01.881Z,-0.20
2017-12-03T14:10:29.914Z,-0.20
2017-12-03T14:12:57.973Z,-0.20
2017-12-03T14:15:25.992Z,-0.30
2017-12-03T14:17:54.781Z,-0.30
2017-12-03T14:20:22.877Z,-0.30
2017-12-03T14:22:50.880Z,-0.20
2017-12-03T14:25:18.876Z,-0.30
2017-12-03T14:27:46.921Z,-0.30
2017-12-03T14:30:15.684Z,-0.30
2017-12-03T14:32:43.686Z,-0.30
2017-12-03T14:35:13.212Z,-0.30
2017-12-03T14:37:41.240Z,-0.40
2017-12-03T14:40:09.262Z,-0.30
2017-12-03T14:42:37.284Z,-0.40
2017-12-03T14:45:05.286Z,-0.40
2017-12-03T14:47:33.284Z,-0.60
2017-12-03T14:50:01.344Z,-0.60
2017-12-03T14:52:29.347Z,-0.60
2017-12-03T14:54:57.374Z,-0.60
2017-12-03T14:57:25.405Z,-0.60
2017-12-03T14:59:53.460Z,-0.60
2017-12-03T15:02:21.469Z,-0.60
2017-12-03T15:04:49.501Z,-0.50
2017-12-03T15:07:19.015Z,-0.70
2017-12-03T15:09:47.016Z,-0.70
2017-12-03T15:12:15.869Z,-0.70
2017-12-03T15:14:43.848Z,-0.70
2017-12-03T15:17:16.583Z,-0.70
2017-12-03T15:19:46.417Z,-0.70
2017-12-03T15:22:15.304Z,-0.70
2017-12-03T15:24:43.315Z,-0.70
2017-12-03T15:27:12.936Z,-0.60
2017-12-03T15:29:40.993Z,-0.70
2017-12-03T15:32:17.325Z,-0.60
2017-12-03T15:34:45.497Z,-0.70
2017-12-03T15:37:17.308Z,-0.60
2017-12-03T15:39:45.316Z,-0.60
2017-12-03T15:42:13.975Z,-0.60
2017-12-03T15:44:41.976Z,-0.50
2017-12-03T15:47:10.024Z,-0.40
2017-12-03T15:49:38.022Z,-0.50
2017-12-03T15:52:06.084Z,-0.50
2017-12-03T15:54:34.122Z,-0.50
2017-12-03T15:57:02.116Z,-0.60
2017-12-03T15:59:30.122Z,-0.60
2017-12-03T16:01:58.920Z,-0.60
2017-12-03T16:04:30.721Z,-0.60
2017-12-03T16:06:58.737Z,-0.70
2017-12-03T16:09:27.785Z,-0.60
2017-12-03T16:11:56.548Z,-0.60
2017-12-03T16:14:24.573Z,-0.70
2017-12-03T16:16:52.573Z,-0.80
2017-12-03T16:19:20.580Z,-0.80
2017-12-03T16:21:48.657Z,-0.70
2017-12-03T16:24:17.376Z,-0.60
2017-12-03T16:26:45.394Z,-0.70
2017-12-03T16:29:14.208Z,-0.60
2017-12-03T16:31:42.205Z,-0.70
2017-12-03T16:34:10.205Z,-0.70
2017-12-03T16:36:38.250Z,-0.70
2017-12-03T16:39:07.017Z,-0.60
2017-12-03T16:41:36.540Z,-0.70
2017-12-03T16:44:04.593Z,-0.70
2017-12-03T16:46:32.596Z,-0.70
2017-12-03T16:49:00.619Z,-0.60
2017-12-03T16:51:29.417Z,-0.60
2017-12-03T16:53:58.217Z,-0.60
2017-12-03T16:56:26.996Z,-0.60
2017-12-03T16:58:55.037Z,-0.60
2017-12-03T17:01:23.042Z,-0.60
2017-12-03T17:03:51.052Z,-0.50
2017-12-03T17:06:19.113Z,-0.50
2017-12-03T17:08:47.397Z,-0.50
2017-12-03T17:11:15.392Z,-0.60
2017-12-03T17:13:43.428Z,-0.60
2017-12-03T17:16:11.429Z,-0.60
2017-12-03T17:18:39.449Z,-0.60
2017-12-03T17:21:07.496Z,-0.60
2017-12-03T17:23:35.516Z,-0.70
2017-12-03T17:26:03.536Z,-0.60
2017-12-03T17:28:32.382Z,-0.70
2017-12-03T17:31:00.360Z,-0.70
2017-12-03T17:33:29.766Z,-0.70
2017-12-03T17:35:57.808Z,-0.70
2017-12-03T17:38:26.579Z,-0.60
2017-12-03T17:40:54.575Z,-0.70
2017-12-03T17:43:22.630Z,-0.70
2017-12-03T17:45:51.216Z,-0.70
2017-12-03T17:48:19.232Z,-0.70
2017-12-03T17:50:47.424Z,-0.60
2017-12-03T17:53:15.451Z,-0.60
2017-12-03T17:55:43.442Z,-0.60
2017-12-03T17:58:11.477Z,-0.60
2017-12-03T18:00:40.252Z,-0.70
2017-12-03T18:03:08.936Z,-0.70
2017-12-03T18:05:36.975Z,-0.70
2017-12-03T18:08:05.752Z,-0.60
2017-12-03T18:10:34.520Z,-0.70
2017-12-03T18:13:02.565Z,-0.70
2017-12-03T18:15:30.601Z,-0.70
2017-12-03T18:17:58.600Z,-0.60
2017-12-03T18:20:26.688Z,-0.60
2017-12-03T18:22:54.724Z,-0.60
2017-12-03T18:25:22.737Z,-0.70
2017-12-03T18:27:50.953Z,-0.70
2017-12-03T18:30:19.720Z,-0.70
2017-12-03T18:32:47.712Z,-0.80
2017-12-03T18:35:15.764Z,-0.70
2017-12-03T18:37:43.773Z,-0.70
2017-12-03T18:40:11.774Z,-0.70
2017-12-03T18:42:39.809Z,-0.70
2017-12-03T18:45:07.804Z,-0.70
2017-12-03T18:47:35.812Z,-0.70
2017-12-03T18:50:03.841Z,-0.70
2017-12-03T18:52:31.857Z,-0.70
2017-12-03T18:54:59.872Z,-0.70
2017-12-03T18:57:27.941Z,-0.60
2017-12-03T18:59:55.937Z,-0.60
2017-12-03T19:02:23.941Z,-0.60
2017-12-03T19:04:52.672Z,-0.60
2017-12-03T19:07:20.688Z,-0.60
2017-12-03T19:09:48.679Z,-0.60
2017-12-03T19:12:16.885Z,-0.60
2017-12-03T19:14:45.653Z,-0.70
2017-12-03T19:17:19.589Z,-0.70
2017-12-03T19:19:54.869Z,-0.60
2017-12-03T19:22:23.397Z,-0.60
2017-12-03T19:24:52.977Z,-0.60
2017-12-03T19:27:21.165Z,-0.60
2017-12-03T19:29:53.190Z,-0.70
2017-12-03T19:32:21.212Z,-0.70
2017-12-03T19:34:49.988Z,-0.70
2017-12-03T19:37:18.025Z,-0.70
2017-12-03T19:39:46.031Z,-0.70
2017-12-03T19:42:14.019Z,-0.60
2017-12-03T19:44:42.060Z,-0.60
2017-12-03T19:47:10.820Z,-0.50
2017-12-03T19:49:38.824Z,-0.60
2017-12-03T19:52:06.871Z,-0.60
2017-12-03T19:54:34.880Z,-0.60
2017-12-03T19:57:02.888Z,-0.60
2017-12-03T19:59:31.721Z,-0.60
2017-12-03T20:01:59.768Z,-0.60
2017-12-03T20:04:27.766Z,-0.60
2017-12-03T20:06:56.896Z,-0.60
2017-12-03T20:09:24.905Z,-0.70
2017-12-03T20:11:53.871Z,-0.60
2017-12-03T20:14:22.753Z,-0.60
2017-12-03T20:16:51.516Z,-0.60
2017-12-03T20:19:19.525Z,-0.70
2017-12-03T20:21:47.721Z,-0.60
2017-12-03T20:24:16.503Z,-0.60
2017-12-03T20:26:44.688Z,-0.70
2017-12-03T20:29:12.736Z,-0.60
2017-12-03T20:31:40.739Z,-0.50
2017-12-03T20:34:08.748Z,-0.60
2017-12-03T20:36:37.686Z,-0.30
2017-12-03T20:39:05.687Z,-0.30
2017-12-03T20:41:33.700Z,-0.30
2017-12-03T20:44:01.720Z,0.00
2017-12-03T20:46:30.588Z,-0.30
2017-12-03T20:48:58.576Z,-0.40
2017-12-03T20:51:26.610Z,-0.40
2017-12-03T20:53:54.616Z,-0.30
2017-12-03T20:56:22.616Z,-0.40
2017-12-03T20:58:50.760Z,-0.40
2017-12-03T21:01:18.748Z,-0.50
2017-12-03T21:03:47.227Z,-0.50
2017-12-03T21:06:15.260Z,-0.50
2017-12-03T21:08:44.767Z,-0.50
2017-12-03T21:11:12.768Z,-0.50
2017-12-03T21:13:40.814Z,-0.40
2017-12-03T21:16:08.850Z,-0.50
2017-12-03T21:18:36.828Z,-0.50
2017-12-03T21:21:04.855Z,-0.50
2017-12-03T21:23:32.852Z,-0.40
2017-12-03T21:26:00.872Z,-0.40
2017-12-03T21:28:28.900Z,-0.40
2017-12-03T21:30:56.903Z,-0.40
2017-12-03T21:33:24.921Z,-0.40
2017-12-03T21:35:52.965Z,-0.40
2017-12-03T21:38:20.996Z,-0.40
2017-12-03T21:40:49.004Z,-0.40
2017-12-03T21:43:17.056Z,-0.40
2017-12-03T21:45:45.052Z,-0.30
2017-12-03T21:48:17.903Z,-0.40
2017-12-03T21:50:45.891Z,-0.40
2017-12-03T21:53:17.021Z,-0.30
2017-12-03T21:55:45.981Z,-0.30
2017-12-03T21:58:13.992Z,-0.40
2017-12-03T22:00:42.012Z,-0.30
2017-12-03T22:03:10.010Z,-0.40
2017-12-03T22:05:38.056Z,-0.30
2017-12-03T22:08:06.052Z,-0.40
2017-12-03T22:10:34.069Z,-0.40
2017-12-03T22:13:02.072Z,-0.30
2017-12-03T22:15:30.884Z,-0.30
2017-12-03T22:17:59.653Z,-0.30
2017-12-03T22:20:27.697Z,-0.30
2017-12-03T22:22:55.711Z,-0.30
2017-12-03T22:25:23.724Z,-0.40
2017-12-03T22:27:52.535Z,-0.30
2017-12-03T22:30:21.311Z,-0.30
2017-12-03T22:32:49.316Z,-0.40
2017-12-03T22:35:18.111Z,-0.40
2017-12-03T22:37:46.880Z,-0.40
2017-12-03T22:40:14.959Z,-0.40
2017-12-03T22:42:45.976Z,-0.40
2017-12-03T22:45:14.040Z,-0.40
2017-12-03T22:47:42.819Z,-0.40
2017-12-03T22:50:10.881Z,-0.50
2017-12-03T22:52:38.868Z,-0.40
2017-12-03T22:55:06.916Z,-0.40
2017-12-03T22:57:34.916Z,-0.40
2017-12-03T23:00:03.112Z,-0.30
2017-12-03T23:02:31.156Z,-0.30
2017-12-03T23:04:59.152Z,-0.30
2017-12-03T23:07:27.156Z,-0.30
2017-12-03T23:09:55.192Z,-0.20
2017-12-03T23:12:23.207Z,-0.20
2017-12-03T23:14:51.189Z,-0.20
2017-12-03T23:17:19.245Z,-0.10
2017-12-03T23:19:48.012Z,-0.10
2017-12-03T23:22:16.008Z,-0.20
2017-12-03T23:24:44.045Z,-0.10
2017-12-03T23:27:12.060Z,0.00
2017-12-03T23:29:40.040Z,0.00
2017-12-03T23:32:08.091Z,-0.10
2017-12-03T23:34:36.084Z,-0.10
2017-12-03T23:37:04.100Z,-0.10
2017-12-03T23:39:32.171Z,0.00
2017-12-03T23:42:00.182Z,-0.10
2017-12-03T23:44:28.952Z,-0.10
2017-12-03T23:46:56.990Z,-0.10
2017-12-03T23:49:25.012Z,0.00
2017-12-03T23:51:52.998Z,0.00
2017-12-03T23:54:21.020Z,0.00
2017-12-03T23:56:49.778Z,0.10
2017-12-03T23:59:17.764Z,0.00
